Terminal Aerodrome Forecast
Issued by NWS

Home | Current Version | Previous Version | Text Only | Print | Product List | Glossary Off
Versions: 1 2 3 4 5 6 7 8 9 10 11 12 13 14 15 16 17 18 19

000
FTUS43 KFGF 190924 AAA
TAFBJI
TAF AMD
KBJI 190924Z 1909/2006 14008KT P6SM BKN003
      TEMPO 1909/1911 4SM BR
     FM191100 15009KT P6SM BKN003
     FM191400 14013KT P6SM OVC003
     FM191700 14015G23KT P6SM BKN010
     FM191900 14017KT P6SM BKN035
     FM200200 13014KT P6SM VCTS BKN025CB=

USA.gov is the U.S. government's official web portal to all federal, state and local government web resources and services.